sensor_id;sensor_type;location;lat;lon;timestamp;noise_LAeq;noise_LA_min;noise_LA_max;noise_LA01;noise_LA95
67320;Laerm;57665;51.436;5.978;2023-04-25T00:00:13;40.41;39.22;43.62;;
67320;Laerm;57665;51.436;5.978;2023-04-25T00:00:23;40.21;39.29;41.12;;
67320;Laerm;57665;51.436;5.978;2023-04-25T00:00:34;40.28;39.20;41.23;;
67320;Laerm;57665;51.436;5.978;2023-04-25T00:00:44;40.28;39.31;41.11;;
67320;Laerm;57665;51.436;5.978;2023-04-25T00:00:54;40.27;39.08;41.20;;
67320;Laerm;57665;51.436;5.978;2023-04-25T00:01:04;40.22;38.97;41.09;;
67320;Laerm;57665;51.436;5.978;2023-04-25T00:01:15;40.24;39.24;41.16;;
67320;Laerm;57665;51.436;5.978;2023-04-25T00:01:25;40.27;39.14;41.36;;
67320;Laerm;57665;51.436;5.978;2023-04-25T00:01:36;40.17;38.80;41.03;;
67320;Laerm;57665;51.436;5.978;2023-04-25T00:01:47;40.18;39.14;40.97;;
67320;Laerm;57665;51.436;5.978;2023-04-25T00:01:57;40.10;39.18;41.10;;
67320;Laerm;57665;51.436;5.978;2023-04-25T00:02:09;40.06;38.47;40.90;;
67320;Laerm;57665;51.436;5.978;2023-04-25T00:02:20;40.19;39.15;41.11;;
67320;Laerm;57665;51.436;5.978;2023-04-25T00:02:30;40.30;39.37;41.29;;
67320;Laerm;57665;51.436;5.978;2023-04-25T00:02:41;40.31;39.15;41.33;;
67320;Laerm;57665;51.436;5.978;2023-04-25T00:02:52;40.32;39.28;41.26;;
67320;Laerm;57665;51.436;5.978;2023-04-25T00:03:02;40.30;39.42;41.26;;
67320;Laerm;57665;51.436;5.978;2023-04-25T00:03:13;40.29;39.09;41.07;;
67320;Laerm;57665;51.436;5.978;2023-04-25T00:03:23;40.24;39.18;41.14;;
67320;Laerm;57665;51.436;5.978;2023-04-25T00:03:35;40.25;39.12;41.15;;
67320;Laerm;57665;51.436;5.978;2023-04-25T00:03:45;40.26;39.30;41.09;;
67320;Laerm;57665;51.436;5.978;2023-04-25T00:03:56;40.28;39.16;41.67;;
67320;Laerm;57665;51.436;5.978;2023-04-25T00:04:07;40.33;39.27;41.11;;
67320;Laerm;57665;51.436;5.978;2023-04-25T00:04:17;40.27;39.42;41.14;;
67320;Laerm;57665;51.436;5.978;2023-04-25T00:04:27;40.34;39.46;41.27;;
67320;Laerm;57665;51.436;5.978;2023-04-25T00:04:39;40.38;39.20;41.55;;
67320;Laerm;57665;51.436;5.978;2023-04-25T00:04:49;40.31;39.49;41.20;;
67320;Laerm;57665;51.436;5.978;2023-04-25T00:05:00;40.28;39.32;41.33;;
67320;Laerm;57665;51.436;5.978;2023-04-25T00:05:11;40.25;39.14;41.19;;
67320;Laerm;57665;51.436;5.978;2023-04-25T00:05:22;40.39;39.20;41.38;;
67320;Laerm;57665;51.436;5.978;2023-04-25T00:05:33;40.26;39.23;41.29;;
67320;Laerm;57665;51.436;5.978;2023-04-25T00:05:43;40.26;39.08;41.13;;
67320;Laerm;57665;51.436;5.978;2023-04-25T00:05:54;40.28;39.14;41.31;;
67320;Laerm;57665;51.436;5.978;2023-04-25T00:06:06;40.25;39.07;41.23;;
67320;Laerm;57665;51.436;5.978;2023-04-25T00:06:16;40.27;39.24;41.09;;
67320;Laerm;57665;51.436;5.978;2023-04-25T00:06:28;40.26;38.94;41.17;;
67320;Laerm;57665;51.436;5.978;2023-04-25T00:06:38;40.25;39.08;41.09;;
67320;Laerm;57665;51.436;5.978;2023-04-25T00:06:49;40.32;39.25;41.38;;
67320;Laerm;57665;51.436;5.978;2023-04-25T00:06:59;40.33;39.50;41.14;;
67320;Laerm;57665;51.436;5.978;2023-04-25T00:07:11;40.27;39.11;41.16;;
67320;Laerm;57665;51.436;5.978;2023-04-25T00:07:22;40.28;39.15;41.36;;
67320;Laerm;57665;51.436;5.978;2023-04-25T00:07:33;40.45;39.32;41.37;;
67320;Laerm;57665;51.436;5.978;2023-04-25T00:07:43;40.41;39.35;41.34;;
67320;Laerm;57665;51.436;5.978;2023-04-25T00:07:53;40.30;39.12;41.30;;
67320;Laerm;57665;51.436;5.978;2023-04-25T00:08:04;40.39;39.14;41.16;;
67320;Laerm;57665;51.436;5.978;2023-04-25T00:08:14;40.33;39.00;41.21;;
67320;Laerm;57665;51.436;5.978;2023-04-25T00:08:25;40.31;39.15;41.19;;
67320;Laerm;57665;51.436;5.978;2023-04-25T00:08:35;40.35;39.39;41.35;;
67320;Laerm;57665;51.436;5.978;2023-04-25T00:08:45;40.32;39.48;41.21;;
67320;Laerm;57665;51.436;5.978;2023-04-25T00:08:55;40.34;39.29;41.27;;
67320;Laerm;57665;51.436;5.978;2023-04-25T00:09:06;40.30;39.07;41.32;;
67320;Laerm;57665;51.436;5.978;2023-04-25T00:09:21;40.32;39.35;41.42;;
67320;Laerm;57665;51.436;5.978;2023-04-25T00:09:31;40.37;39.07;41.18;;
67320;Laerm;57665;51.436;5.978;2023-04-25T00:09:42;40.42;39.49;41.50;;
67320;Laerm;57665;51.436;5.978;2023-04-25T00:09:52;40.47;39.20;41.28;;
67320;Laerm;57665;51.436;5.978;2023-04-25T00:10:02;40.33;39.36;41.04;;
67320;Laerm;57665;51.436;5.978;2023-04-25T00:10:13;40.33;39.40;41.22;;
67320;Laerm;57665;51.436;5.978;2023-04-25T00:10:23;40.38;39.24;41.26;;
67320;Laerm;57665;51.436;5.978;2023-04-25T00:10:33;40.28;39.22;41.16;;
67320;Laerm;57665;51.436;5.978;2023-04-25T00:10:43;40.28;39.31;41.25;;
67320;Laerm;57665;51.436;5.978;2023-04-25T00:10:54;40.48;39.36;41.26;;
67320;Laerm;57665;51.436;5.978;2023-04-25T00:11:04;40.52;39.69;41.35;;
67320;Laerm;57665;51.436;5.978;2023-04-25T00:11:14;40.36;39.42;41.38;;
67320;Laerm;57665;51.436;5.978;2023-04-25T00:11:24;40.28;39.19;41.16;;
67320;Laerm;57665;51.436;5.978;2023-04-25T00:11:35;40.36;39.10;41.40;;
67320;Laerm;57665;51.436;5.978;2023-04-25T00:11:45;40.45;39.32;41.30;;
67320;Laerm;57665;51.436;5.978;2023-04-25T00:11:55;40.38;39.27;41.46;;
67320;Laerm;57665;51.436;5.978;2023-04-25T00:12:06;40.44;39.34;41.39;;
67320;Laerm;57665;51.436;5.978;2023-04-25T00:12:16;40.41;39.44;41.16;;
67320;Laerm;57665;51.436;5.978;2023-04-25T00:12:26;40.34;39.33;41.37;;
67320;Laerm;57665;51.436;5.978;2023-04-25T00:12:40;40.45;39.23;41.46;;
67320;Laerm;57665;51.436;5.978;2023-04-25T00:12:51;40.41;39.32;41.31;;
67320;Laerm;57665;51.436;5.978;2023-04-25T00:13:01;40.45;39.66;41.34;;
67320;Laerm;57665;51.436;5.978;2023-04-25T00:13:12;40.54;39.04;41.47;;
67320;Laerm;57665;51.436;5.978;2023-04-25T00:13:23;40.38;39.44;41.23;;
67320;Laerm;57665;51.436;5.978;2023-04-25T00:13:35;40.32;39.20;41.45;;
67320;Laerm;57665;51.436;5.978;2023-04-25T00:13:45;40.35;39.50;41.23;;
67320;Laerm;57665;51.436;5.978;2023-04-25T00:13:56;40.39;39.35;41.49;;
67320;Laerm;57665;51.436;5.978;2023-04-25T00:14:07;40.44;39.43;41.57;;
67320;Laerm;57665;51.436;5.978;2023-04-25T00:14:17;40.40;39.23;41.31;;
67320;Laerm;57665;51.436;5.978;2023-04-25T00:14:28;40.45;39.39;41.39;;
67320;Laerm;57665;51.436;5.978;2023-04-25T00:14:38;40.42;39.48;41.13;;
67320;Laerm;57665;51.436;5.978;2023-04-25T00:14:49;40.34;39.48;41.30;;
67320;Laerm;57665;51.436;5.978;2023-04-25T00:15:03;40.23;39.05;41.22;;
67320;Laerm;57665;51.436;5.978;2023-04-25T00:15:13;40.34;39.23;41.45;;
67320;Laerm;57665;51.436;5.978;2023-04-25T00:15:23;40.43;39.68;41.36;;
67320;Laerm;57665;51.436;5.978;2023-04-25T00:15:34;40.43;39.15;41.56;;
67320;Laerm;57665;51.436;5.978;2023-04-25T00:15:45;40.31;39.16;41.20;;
67320;Laerm;57665;51.436;5.978;2023-04-25T00:15:58;40.33;39.37;41.32;;
67320;Laerm;57665;51.436;5.978;2023-04-25T00:16:10;40.34;39.25;41.17;;
67320;Laerm;57665;51.436;5.978;2023-04-25T00:16:20;40.37;39.41;41.45;;
67320;Laerm;57665;51.436;5.978;2023-04-25T00:16:30;40.38;39.39;41.26;;
67320;Laerm;57665;51.436;5.978;2023-04-25T00:16:43;40.44;39.45;41.57;;
67320;Laerm;57665;51.436;5.978;2023-04-25T00:16:54;40.49;39.30;41.40;;
67320;Laerm;57665;51.436;5.978;2023-04-25T00:17:04;40.48;39.59;41.37;;
67320;Laerm;57665;51.436;5.978;2023-04-25T00:17:15;40.48;39.57;41.35;;
67320;Laerm;57665;51.436;5.978;2023-04-25T00:17:27;40.41;39.51;41.25;;
67320;Laerm;57665;51.436;5.978;2023-04-25T00:17:37;40.44;39.64;41.44;;
67320;Laerm;57665;51.436;5.978;2023-04-25T00:17:48;40.44;39.40;41.44;;
67320;Laerm;57665;51.436;5.978;2023-04-25T00:17:58;40.42;39.53;41.32;;
67320;Laerm;57665;51.436;5.978;2023-04-25T00:18:08;40.48;39.29;41.44;;
67320;Laerm;57665;51.436;5.978;2023-04-25T00:18:19;40.46;39.62;41.34;;
67320;Laerm;57665;51.436;5.978;2023-04-25T00:18:30;40.48;39.59;41.89;;
67320;Laerm;57665;51.436;5.978;2023-04-25T00:18:41;40.53;39.50;41.46;;
67320;Laerm;57665;51.436;5.978;2023-04-25T00:18:52;40.44;39.42;41.39;;
67320;Laerm;57665;51.436;5.978;2023-04-25T00:19:03;40.53;39.54;41.75;;
67320;Laerm;57665;51.436;5.978;2023-04-25T00:19:14;40.47;39.44;41.30;;
67320;Laerm;57665;51.436;5.978;2023-04-25T00:19:24;40.41;39.27;41.45;;
67320;Laerm;57665;51.436;5.978;2023-04-25T00:19:34;40.47;39.51;41.47;;
67320;Laerm;57665;51.436;5.978;2023-04-25T00:19:45;40.49;39.53;41.34;;
67320;Laerm;57665;51.436;5.978;2023-04-25T00:19:56;40.43;38.97;41.33;;
67320;Laerm;57665;51.436;5.978;2023-04-25T00:20:08;40.43;39.46;41.45;;
67320;Laerm;57665;51.436;5.978;2023-04-25T00:20:21;40.46;39.51;41.34;;
67320;Laerm;57665;51.436;5.978;2023-04-25T00:20:33;40.47;39.38;41.55;;
67320;Laerm;57665;51.436;5.978;2023-04-25T00:20:43;40.50;39.46;42.30;;
67320;Laerm;57665;51.436;5.978;2023-04-25T00:20:56;40.42;39.43;41.37;;
67320;Laerm;57665;51.436;5.978;2023-04-25T00:21:06;40.41;39.50;41.39;;
67320;Laerm;57665;51.436;5.978;2023-04-25T00:21:18;40.32;39.39;41.17;;
67320;Laerm;57665;51.436;5.978;2023-04-25T00:21:28;40.39;39.39;41.37;;
67320;Laerm;57665;51.436;5.978;2023-04-25T00:21:38;40.43;38.88;41.19;;
67320;Laerm;57665;51.436;5.978;2023-04-25T00:21:50;40.36;39.33;41.35;;
67320;Laerm;57665;51.436;5.978;2023-04-25T00:22:00;40.43;39.33;41.85;;
67320;Laerm;57665;51.436;5.978;2023-04-25T00:22:10;40.38;39.06;41.31;;
67320;Laerm;57665;51.436;5.978;2023-04-25T00:22:21;40.46;39.21;41.46;;
67320;Laerm;57665;51.436;5.978;2023-04-25T00:22:32;40.42;39.53;41.41;;
67320;Laerm;57665;51.436;5.978;2023-04-25T00:22:44;40.46;39.64;41.56;;
67320;Laerm;57665;51.436;5.978;2023-04-25T00:22:55;40.40;39.46;41.37;;
67320;Laerm;57665;51.436;5.978;2023-04-25T00:23:05;40.47;39.46;41.36;;
67320;Laerm;57665;51.436;5.978;2023-04-25T00:23:16;40.36;39.21;41.26;;
67320;Laerm;57665;51.436;5.978;2023-04-25T00:23:29;40.37;39.12;41.30;;
67320;Laerm;57665;51.436;5.978;2023-04-25T00:23:39;40.52;39.57;41.61;;
67320;Laerm;57665;51.436;5.978;2023-04-25T00:23:50;40.42;39.54;41.23;;
67320;Laerm;57665;51.436;5.978;2023-04-25T00:24:00;40.49;39.47;41.62;;
67320;Laerm;57665;51.436;5.978;2023-04-25T00:24:10;40.48;39.57;41.47;;
67320;Laerm;57665;51.436;5.978;2023-04-25T00:24:23;40.42;39.24;41.45;;
67320;Laerm;57665;51.436;5.978;2023-04-25T00:24:34;40.40;39.34;41.18;;
67320;Laerm;57665;51.436;5.978;2023-04-25T00:24:44;40.33;39.30;41.22;;
67320;Laerm;57665;51.436;5.978;2023-04-25T00:24:54;40.34;39.40;41.28;;
67320;Laerm;57665;51.436;5.978;2023-04-25T00:25:07;40.27;39.09;41.20;;
67320;Laerm;57665;51.436;5.978;2023-04-25T00:25:17;40.22;39.49;41.13;;
67320;Laerm;57665;51.436;5.978;2023-04-25T00:25:27;40.28;39.19;41.27;;
67320;Laerm;57665;51.436;5.978;2023-04-25T00:25:38;40.39;39.34;41.40;;
67320;Laerm;57665;51.436;5.978;2023-04-25T00:25:49;40.40;39.05;41.28;;
67320;Laerm;57665;51.436;5.978;2023-04-25T00:25:59;40.37;39.47;41.28;;
67320;Laerm;57665;51.436;5.978;2023-04-25T00:26:09;40.37;39.35;41.32;;
67320;Laerm;57665;51.436;5.978;2023-04-25T00:26:20;40.36;39.34;41.19;;
67320;Laerm;57665;51.436;5.978;2023-04-25T00:26:30;40.40;39.19;41.31;;
67320;Laerm;57665;51.436;5.978;2023-04-25T00:26:41;40.43;39.10;41.33;;
67320;Laerm;57665;51.436;5.978;2023-04-25T00:26:51;40.42;39.34;41.34;;
67320;Laerm;57665;51.436;5.978;2023-04-25T00:27:01;40.46;39.50;41.45;;
67320;Laerm;57665;51.436;5.978;2023-04-25T00:27:11;40.48;39.25;41.29;;
67320;Laerm;57665;51.436;5.978;2023-04-25T00:27:22;40.36;39.51;41.46;;
67320;Laerm;57665;51.436;5.978;2023-04-25T00:27:32;40.48;39.61;41.54;;
67320;Laerm;57665;51.436;5.978;2023-04-25T00:27:42;40.50;39.37;41.24;;
67320;Laerm;57665;51.436;5.978;2023-04-25T00:27:53;40.54;39.60;41.58;;
67320;Laerm;57665;51.436;5.978;2023-04-25T00:28:03;40.47;39.42;41.31;;
67320;Laerm;57665;51.436;5.978;2023-04-25T00:28:13;40.50;39.48;41.30;;
67320;Laerm;57665;51.436;5.978;2023-04-25T00:28:24;40.44;39.43;41.59;;
67320;Laerm;57665;51.436;5.978;2023-04-25T00:28:34;40.47;39.52;41.37;;
67320;Laerm;57665;51.436;5.978;2023-04-25T00:28:44;40.54;39.46;41.45;;
67320;Laerm;57665;51.436;5.978;2023-04-25T00:28:55;40.43;39.39;41.38;;
67320;Laerm;57665;51.436;5.978;2023-04-25T00:29:08;40.47;39.32;41.44;;
67320;Laerm;57665;51.436;5.978;2023-04-25T00:29:18;40.45;39.57;41.30;;
67320;Laerm;57665;51.436;5.978;2023-04-25T00:29:29;40.49;39.28;41.90;;
67320;Laerm;57665;51.436;5.978;2023-04-25T00:29:39;40.53;39.46;41.35;;
67320;Laerm;57665;51.436;5.978;2023-04-25T00:29:49;40.48;39.07;41.42;;
67320;Laerm;57665;51.436;5.978;2023-04-25T00:29:59;40.41;39.55;41.20;;
67320;Laerm;57665;51.436;5.978;2023-04-25T00:30:22;40.48;39.50;41.51;;
67320;Laerm;57665;51.436;5.978;2023-04-25T00:30:32;40.48;39.45;41.42;;
67320;Laerm;57665;51.436;5.978;2023-04-25T00:30:43;40.39;39.48;41.37;;
67320;Laerm;57665;51.436;5.978;2023-04-25T00:30:53;40.43;39.47;41.34;;
67320;Laerm;57665;51.436;5.978;2023-04-25T00:31:03;40.64;39.59;42.68;;
67320;Laerm;57665;51.436;5.978;2023-04-25T00:31:14;40.60;39.43;42.06;;
67320;Laerm;57665;51.436;5.978;2023-04-25T00:31:24;40.53;39.54;41.56;;
67320;Laerm;57665;51.436;5.978;2023-04-25T00:31:37;40.49;39.53;41.27;;
67320;Laerm;57665;51.436;5.978;2023-04-25T00:31:47;40.37;39.41;41.17;;
67320;Laerm;57665;51.436;5.978;2023-04-25T00:31:57;40.39;39.28;41.39;;
67320;Laerm;57665;51.436;5.978;2023-04-25T00:32:08;40.42;39.10;41.53;;
67320;Laerm;57665;51.436;5.978;2023-04-25T00:32:18;40.42;39.46;41.55;;
67320;Laerm;57665;51.436;5.978;2023-04-25T00:32:28;40.50;39.46;41.45;;
67320;Laerm;57665;51.436;5.978;2023-04-25T00:32:38;40.32;39.37;41.30;;
67320;Laerm;57665;51.436;5.978;2023-04-25T00:32:48;40.31;39.47;41.39;;
67320;Laerm;57665;51.436;5.978;2023-04-25T00:32:59;40.39;39.41;41.26;;
67320;Laerm;57665;51.436;5.978;2023-04-25T00:33:10;40.41;39.15;41.50;;
67320;Laerm;57665;51.436;5.978;2023-04-25T00:33:20;40.41;39.55;41.22;;
67320;Laerm;57665;51.436;5.978;2023-04-25T00:33:31;40.41;39.25;41.32;;
67320;Laerm;57665;51.436;5.978;2023-04-25T00:33:41;40.42;39.50;41.34;;
67320;Laerm;57665;51.436;5.978;2023-04-25T00:33:51;40.46;39.60;41.53;;
67320;Laerm;57665;51.436;5.978;2023-04-25T00:34:02;40.42;39.39;41.47;;
67320;Laerm;57665;51.436;5.978;2023-04-25T00:34:13;49.46;39.62;60.53;;
67320;Laerm;57665;51.436;5.978;2023-04-25T00:34:23;71.65;58.62;77.05;;
67320;Laerm;57665;51.436;5.978;2023-04-25T00:34:33;70.31;64.79;74.91;;
67320;Laerm;57665;51.436;5.978;2023-04-25T00:34:44;53.51;43.87;64.99;;
67320;Laerm;57665;51.436;5.978;2023-04-25T00:34:54;43.08;40.41;46.44;;
67320;Laerm;57665;51.436;5.978;2023-04-25T00:35:05;40.78;39.55;42.57;;
67320;Laerm;57665;51.436;5.978;2023-04-25T00:35:16;40.55;39.40;41.48;;
67320;Laerm;57665;51.436;5.978;2023-04-25T00:35:26;40.61;39.50;41.51;;
67320;Laerm;57665;51.436;5.978;2023-04-25T00:35:37;40.67;39.75;41.69;;
67320;Laerm;57665;51.436;5.978;2023-04-25T00:35:48;40.44;39.32;41.49;;
67320;Laerm;57665;51.436;5.978;2023-04-25T00:35:58;40.42;39.41;41.37;;
67320;Laerm;57665;51.436;5.978;2023-04-25T00:36:08;40.34;39.34;41.20;;
67320;Laerm;57665;51.436;5.978;2023-04-25T00:36:19;40.38;39.38;41.41;;
67320;Laerm;57665;51.436;5.978;2023-04-25T00:36:29;40.39;39.53;41.26;;
67320;Laerm;57665;51.436;5.978;2023-04-25T00:36:40;40.40;39.63;41.37;;
67320;Laerm;57665;51.436;5.978;2023-04-25T00:36:50;40.39;39.32;41.30;;
67320;Laerm;57665;51.436;5.978;2023-04-25T00:37:01;40.41;39.38;41.26;;
67320;Laerm;57665;51.436;5.978;2023-04-25T00:37:14;40.47;39.53;41.50;;
67320;Laerm;57665;51.436;5.978;2023-04-25T00:37:25;40.50;39.53;41.52;;
67320;Laerm;57665;51.436;5.978;2023-04-25T00:37:35;40.54;39.34;41.35;;
67320;Laerm;57665;51.436;5.978;2023-04-25T00:37:45;40.53;39.69;41.44;;
67320;Laerm;57665;51.436;5.978;2023-04-25T00:37:56;40.44;39.56;41.29;;
67320;Laerm;57665;51.436;5.978;2023-04-25T00:38:06;40.53;39.59;41.62;;
67320;Laerm;57665;51.436;5.978;2023-04-25T00:38:16;40.48;39.43;41.21;;
67320;Laerm;57665;51.436;5.978;2023-04-25T00:38:26;40.43;39.61;41.52;;
67320;Laerm;57665;51.436;5.978;2023-04-25T00:38:37;40.39;39.47;41.37;;
67320;Laerm;57665;51.436;5.978;2023-04-25T00:38:48;40.45;39.58;41.69;;
67320;Laerm;57665;51.436;5.978;2023-04-25T00:38:58;40.46;39.40;41.38;;
67320;Laerm;57665;51.436;5.978;2023-04-25T00:39:08;40.52;39.31;41.49;;
67320;Laerm;57665;51.436;5.978;2023-04-25T00:39:18;40.53;39.50;41.81;;
67320;Laerm;57665;51.436;5.978;2023-04-25T00:39:29;40.43;39.44;41.28;;
67320;Laerm;57665;51.436;5.978;2023-04-25T00:39:39;40.46;39.23;41.34;;
67320;Laerm;57665;51.436;5.978;2023-04-25T00:39:50;40.44;39.49;41.27;;
67320;Laerm;57665;51.436;5.978;2023-04-25T00:40:00;40.45;39.32;41.29;;
67320;Laerm;57665;51.436;5.978;2023-04-25T00:40:11;40.45;39.63;41.23;;
67320;Laerm;57665;51.436;5.978;2023-04-25T00:40:21;40.44;39.37;41.32;;
67320;Laerm;57665;51.436;5.978;2023-04-25T00:40:31;40.39;39.33;41.17;;
67320;Laerm;57665;51.436;5.978;2023-04-25T00:40:41;40.36;39.44;41.18;;
67320;Laerm;57665;51.436;5.978;2023-04-25T00:40:53;40.38;39.41;41.20;;
67320;Laerm;57665;51.436;5.978;2023-04-25T00:41:06;40.39;39.46;41.25;;
67320;Laerm;57665;51.436;5.978;2023-04-25T00:41:16;40.48;39.49;41.35;;
67320;Laerm;57665;51.436;5.978;2023-04-25T00:41:26;40.52;39.32;41.31;;
67320;Laerm;57665;51.436;5.978;2023-04-25T00:41:37;40.46;39.48;41.45;;
67320;Laerm;57665;51.436;5.978;2023-04-25T00:41:47;40.45;39.22;41.33;;
67320;Laerm;57665;51.436;5.978;2023-04-25T00:41:58;40.63;39.61;41.55;;
67320;Laerm;57665;51.436;5.978;2023-04-25T00:42:08;40.64;39.86;41.52;;
67320;Laerm;57665;51.436;5.978;2023-04-25T00:42:18;63.11;40.48;69.41;;
67320;Laerm;57665;51.436;5.978;2023-04-25T00:42:29;66.14;62.56;69.72;;
67320;Laerm;57665;51.436;5.978;2023-04-25T00:42:40;66.88;60.45;77.19;;
67320;Laerm;57665;51.436;5.978;2023-04-25T00:42:53;50.20;41.87;62.28;;
67320;Laerm;57665;51.436;5.978;2023-04-25T00:43:04;41.90;39.83;45.31;;
67320;Laerm;57665;51.436;5.978;2023-04-25T00:43:14;40.89;39.71;41.93;;
67320;Laerm;57665;51.436;5.978;2023-04-25T00:43:25;40.81;39.62;41.75;;
67320;Laerm;57665;51.436;5.978;2023-04-25T00:43:36;40.59;39.53;41.53;;
67320;Laerm;57665;51.436;5.978;2023-04-25T00:43:47;40.42;39.44;41.32;;
67320;Laerm;57665;51.436;5.978;2023-04-25T00:43:58;40.47;39.57;41.59;;
67320;Laerm;57665;51.436;5.978;2023-04-25T00:44:09;40.55;39.42;41.39;;
67320;Laerm;57665;51.436;5.978;2023-04-25T00:44:21;40.44;39.43;41.42;;
67320;Laerm;57665;51.436;5.978;2023-04-25T00:44:31;40.41;39.33;41.34;;
67320;Laerm;57665;51.436;5.978;2023-04-25T00:44:42;40.51;39.38;41.54;;
67320;Laerm;57665;51.436;5.978;2023-04-25T00:44:53;40.52;39.60;41.45;;
67320;Laerm;57665;51.436;5.978;2023-04-25T00:45:04;40.47;39.61;41.21;;
67320;Laerm;57665;51.436;5.978;2023-04-25T00:45:15;40.50;39.50;41.59;;
67320;Laerm;57665;51.436;5.978;2023-04-25T00:45:28;40.47;39.49;41.39;;
67320;Laerm;57665;51.436;5.978;2023-04-25T00:45:39;40.48;39.21;41.33;;
67320;Laerm;57665;51.436;5.978;2023-04-25T00:45:50;40.44;39.53;41.31;;
67320;Laerm;57665;51.436;5.978;2023-04-25T00:46:00;40.50;39.60;42.33;;
67320;Laerm;57665;51.436;5.978;2023-04-25T00:46:11;40.50;39.49;41.57;;
67320;Laerm;57665;51.436;5.978;2023-04-25T00:46:21;40.48;39.60;41.46;;
67320;Laerm;57665;51.436;5.978;2023-04-25T00:46:31;40.44;39.47;41.92;;
67320;Laerm;57665;51.436;5.978;2023-04-25T00:46:42;40.48;39.56;41.52;;
67320;Laerm;57665;51.436;5.978;2023-04-25T00:46:52;40.49;39.48;41.39;;
67320;Laerm;57665;51.436;5.978;2023-04-25T00:47:03;40.49;39.44;41.34;;
67320;Laerm;57665;51.436;5.978;2023-04-25T00:47:15;40.69;39.73;42.41;;
67320;Laerm;57665;51.436;5.978;2023-04-25T00:47:25;40.57;39.75;41.60;;
67320;Laerm;57665;51.436;5.978;2023-04-25T00:47:35;40.63;39.44;41.58;;
67320;Laerm;57665;51.436;5.978;2023-04-25T00:47:46;40.58;39.46;41.51;;
67320;Laerm;57665;51.436;5.978;2023-04-25T00:47:57;40.64;39.57;41.76;;
67320;Laerm;57665;51.436;5.978;2023-04-25T00:48:07;40.60;39.54;41.63;;
67320;Laerm;57665;51.436;5.978;2023-04-25T00:48:18;40.57;39.52;41.67;;
67320;Laerm;57665;51.436;5.978;2023-04-25T00:48:28;64.28;40.16;71.93;;
67320;Laerm;57665;51.436;5.978;2023-04-25T00:48:38;72.26;66.84;78.35;;
67320;Laerm;57665;51.436;5.978;2023-04-25T00:48:48;70.05;65.10;76.23;;
67320;Laerm;57665;51.436;5.978;2023-04-25T00:48:59;64.67;44.86;74.45;;
67320;Laerm;57665;51.436;5.978;2023-04-25T00:49:09;43.70;41.32;46.01;;
67320;Laerm;57665;51.436;5.978;2023-04-25T00:49:25;41.33;39.67;44.11;;
67320;Laerm;57665;51.436;5.978;2023-04-25T00:49:35;40.80;39.82;41.97;;
67320;Laerm;57665;51.436;5.978;2023-04-25T00:49:45;40.63;39.59;41.54;;
67320;Laerm;57665;51.436;5.978;2023-04-25T00:49:55;40.63;39.85;41.50;;
67320;Laerm;57665;51.436;5.978;2023-04-25T00:50:06;40.55;39.66;41.52;;
67320;Laerm;57665;51.436;5.978;2023-04-25T00:50:16;40.56;39.23;41.51;;
67320;Laerm;57665;51.436;5.978;2023-04-25T00:50:27;40.51;39.45;41.46;;
67320;Laerm;57665;51.436;5.978;2023-04-25T00:50:37;40.52;39.51;41.62;;
67320;Laerm;57665;51.436;5.978;2023-04-25T00:50:54;40.48;39.40;41.40;;
67320;Laerm;57665;51.436;5.978;2023-04-25T00:51:05;40.49;39.44;41.43;;
67320;Laerm;57665;51.436;5.978;2023-04-25T00:51:16;40.49;39.25;41.39;;
67320;Laerm;57665;51.436;5.978;2023-04-25T00:51:29;40.47;39.40;41.63;;
67320;Laerm;57665;51.436;5.978;2023-04-25T00:51:40;40.50;39.47;41.50;;
67320;Laerm;57665;51.436;5.978;2023-04-25T00:51:54;40.53;39.49;41.52;;
67320;Laerm;57665;51.436;5.978;2023-04-25T00:52:07;40.56;39.61;41.50;;
67320;Laerm;57665;51.436;5.978;2023-04-25T00:52:18;40.67;39.47;41.97;;
67320;Laerm;57665;51.436;5.978;2023-04-25T00:52:28;40.59;39.38;41.31;;
67320;Laerm;57665;51.436;5.978;2023-04-25T00:52:38;40.58;39.57;41.60;;
67320;Laerm;57665;51.436;5.978;2023-04-25T00:52:50;40.52;39.46;41.55;;
67320;Laerm;57665;51.436;5.978;2023-04-25T00:53:01;40.55;39.66;41.54;;
67320;Laerm;57665;51.436;5.978;2023-04-25T00:53:11;40.58;39.65;41.51;;
67320;Laerm;57665;51.436;5.978;2023-04-25T00:53:22;40.61;39.61;41.39;;
67320;Laerm;57665;51.436;5.978;2023-04-25T00:53:33;40.54;39.59;41.34;;
67320;Laerm;57665;51.436;5.978;2023-04-25T00:53:44;40.62;39.56;41.42;;
67320;Laerm;57665;51.436;5.978;2023-04-25T00:53:55;40.59;39.38;41.55;;
67320;Laerm;57665;51.436;5.978;2023-04-25T00:54:05;40.50;39.33;41.44;;
67320;Laerm;57665;51.436;5.978;2023-04-25T00:54:15;40.42;39.56;41.38;;
67320;Laerm;57665;51.436;5.978;2023-04-25T00:54:26;40.37;39.33;41.42;;
67320;Laerm;57665;51.436;5.978;2023-04-25T00:54:37;40.42;39.33;41.26;;
67320;Laerm;57665;51.436;5.978;2023-04-25T00:54:48;40.50;39.34;41.50;;
67320;Laerm;57665;51.436;5.978;2023-04-25T00:54:58;40.44;39.52;41.17;;
67320;Laerm;57665;51.436;5.978;2023-04-25T00:55:09;40.49;39.54;41.67;;
67320;Laerm;57665;51.436;5.978;2023-04-25T00:55:20;40.51;39.53;41.48;;
67320;Laerm;57665;51.436;5.978;2023-04-25T00:55:30;40.48;39.32;41.39;;
67320;Laerm;57665;51.436;5.978;2023-04-25T00:55:47;40.48;39.33;41.44;;
67320;Laerm;57665;51.436;5.978;2023-04-25T00:55:58;40.62;39.57;41.41;;
67320;Laerm;57665;51.436;5.978;2023-04-25T00:56:08;40.54;39.62;41.41;;
67320;Laerm;57665;51.436;5.978;2023-04-25T00:56:21;40.54;39.61;41.39;;
67320;Laerm;57665;51.436;5.978;2023-04-25T00:56:32;40.64;39.45;41.67;;
67320;Laerm;57665;51.436;5.978;2023-04-25T00:56:42;41.08;39.88;43.06;;
67320;Laerm;57665;51.436;5.978;2023-04-25T00:56:55;40.66;39.67;41.61;;
67320;Laerm;57665;51.436;5.978;2023-04-25T00:57:05;40.65;39.64;41.57;;
67320;Laerm;57665;51.436;5.978;2023-04-25T00:57:18;40.58;39.49;41.54;;
67320;Laerm;57665;51.436;5.978;2023-04-25T00:57:29;40.65;39.76;41.49;;
67320;Laerm;57665;51.436;5.978;2023-04-25T00:57:39;40.57;39.30;41.58;;
67320;Laerm;57665;51.436;5.978;2023-04-25T00:57:50;40.56;39.06;41.63;;
67320;Laerm;57665;51.436;5.978;2023-04-25T00:58:00;40.59;39.81;41.63;;
67320;Laerm;57665;51.436;5.978;2023-04-25T00:58:11;40.84;39.48;43.64;;
67320;Laerm;57665;51.436;5.978;2023-04-25T00:58:21;66.25;42.37;73.61;;
67320;Laerm;57665;51.436;5.978;2023-04-25T00:58:32;69.69;64.35;75.85;;
67320;Laerm;57665;51.436;5.978;2023-04-25T00:58:42;62.76;44.50;73.57;;
67320;Laerm;57665;51.436;5.978;2023-04-25T00:58:53;42.85;40.31;46.08;;
67320;Laerm;57665;51.436;5.978;2023-04-25T00:59:06;40.84;39.70;42.13;;
67320;Laerm;57665;51.436;5.978;2023-04-25T00:59:17;40.74;39.94;41.74;;
67320;Laerm;57665;51.436;5.978;2023-04-25T00:59:28;40.71;39.79;41.63;;
67320;Laerm;57665;51.436;5.978;2023-04-25T00:59:39;40.75;39.71;41.76;;
67320;Laerm;57665;51.436;5.978;2023-04-25T00:59:53;40.69;39.58;41.73;;
67320;Laerm;57665;51.436;5.978;2023-04-25T01:00:05;40.66;39.30;41.72;;
67320;Laerm;57665;51.436;5.978;2023-04-25T01:00:16;40.78;39.69;42.51;;
67320;Laerm;57665;51.436;5.978;2023-04-25T01:00:27;40.52;39.49;41.46;;
67320;Laerm;57665;51.436;5.978;2023-04-25T01:00:37;40.51;39.35;41.38;;
67320;Laerm;57665;51.436;5.978;2023-04-25T01:00:48;40.60;39.47;41.51;;